Meath Environmental Platform

Observations for Trim Market St

Time AQI Temp °C Hum % Pres Pa CO μg/m³ H₂S μg/m³ NO μg/m³ NO₂ μg/m³ O₃ μg/m³ SO₂ μg/m³ PM1 μg/m³ PM2.5 μg/m³ PM10 μg/m³
Saturday 11 July 2026
02:31 1 17.5 71 55,045 0.02 0 0 4.17 20.39 0 0.71 2.04 3.81
02:29 1 17.6 71 54,896 0.02 0 0 2.73 11.46 0 1.43 2.52 4.43
02:28 1 17.6 71 54,810 0.02 0 0 5.92 27.42 0 0.71 2.51 4.43
02:27 1 17.6 71 54,739 0 0 0 0 10.4 0 0.71 2.51 4.43
02:26 1 17.6 71 54,680 0 0 0 0.2 1.81 0 0.71 2.51 4.43
02:25 1 17.6 71 54,635 0 0 0 4.4 29.19 0 0 2.02 3.82
02:24 1 17.6 71 54,582 0 0 0 2.8 13.44 0 0.71 2.02 3.82
02:23 1 17.7 71 54,575 0 0 1 3.38 9.25 0 0.71 2.51 4.43
02:22 1 17.7 71 54,588 0 0 0 5.28 25.77 0 2.14 3.48 5.67
02:19 1 17.7 71 54,675 0 0 0 6 32.15 0 1.43 3 5.05
02:17 1 17.7 71 54,699 0.01 0 0.19 0.61 9.7 0 0.71 2.52 4.43
02:16 1 17.7 71 54,724 0.03 0 0 4.41 13.41 0 0.71 2.52 4.43
02:12 1 17.8 71 54,779 0 0 0 0.68 7.24 0 0 1.55 3.81
02:09 1 17.9 71 54,750 0.05 0 0 2.06 9.79 0 0.71 1.55 3.81
02:02 1 17.9 71 54,648 0 0 0 2.66 10.49 0 0 1.55 3.18
02:01 1 17.9 71 54,668 0 0 0 4.76 14.22 0 0 1.07 3.18
02:00 1 18 71 54,693 0 0 0 4.13 18.26 0 0 1.55 3.18
01:59 1 18 71 54,713 0 0 0 3.53 9.53 0 0.71 2.04 3.81
01:58 1 18 71 54,745 0 0 0 2.73 10.39 0 0 1.07 2.56
01:57 1 18 71 54,762 0 0 0 3.33 8.73 0 0 1.55 3.18